createdAt,value
2023-03-12T00:02:44.299Z,-1.42
2023-03-12T00:07:48.511Z,-1.53
2023-03-12T00:12:54.246Z,-1.55
2023-03-12T00:17:58.346Z,-1.57
2023-03-12T00:23:02.520Z,-1.63
2023-03-12T00:28:08.069Z,-1.65
2023-03-12T00:33:12.640Z,-1.61
2023-03-12T00:38:16.900Z,-1.65
2023-03-12T00:43:22.541Z,-1.66
2023-03-12T00:48:26.450Z,-1.75
2023-03-12T00:53:30.501Z,-1.81
2023-03-12T00:58:36.389Z,-1.74
2023-03-12T01:03:40.466Z,-1.88
2023-03-12T01:08:45.012Z,-1.91
2023-03-12T01:13:51.074Z,-1.94
2023-03-12T01:18:55.287Z,-1.99
2023-03-12T01:24:00.029Z,-2.00
2023-03-12T01:29:05.703Z,-2.05
2023-03-12T01:34:11.424Z,-2.04
2023-03-12T01:39:15.996Z,-2.12
2023-03-12T01:44:21.638Z,-2.15
2023-03-12T01:49:28.454Z,-2.15
2023-03-12T01:54:36.979Z,-2.19
2023-03-12T01:59:47.334Z,-2.23
2023-03-12T02:04:54.041Z,-2.27
2023-03-12T02:09:59.008Z,-2.29
2023-03-12T02:15:05.345Z,-2.36
2023-03-12T02:20:16.465Z,-2.36
2023-03-12T02:25:31.588Z,-2.37
2023-03-12T02:30:36.982Z,-2.43
2023-03-12T02:35:41.498Z,-2.52
2023-03-12T02:40:48.884Z,-2.48
2023-03-12T02:45:53.398Z,-2.49
2023-03-12T02:51:00.184Z,-2.50
2023-03-12T02:56:06.173Z,-2.58
2023-03-12T03:01:10.269Z,-2.55
2023-03-12T03:06:15.157Z,-2.66
2023-03-12T03:11:24.237Z,-2.60
2023-03-12T03:16:31.144Z,-2.70
2023-03-12T03:21:36.173Z,-2.69
2023-03-12T03:26:42.180Z,-2.70
2023-03-12T03:31:46.520Z,-2.64
2023-03-12T03:36:50.710Z,-2.67
2023-03-12T03:41:56.926Z,-2.68
2023-03-12T03:47:03.758Z,-2.64
2023-03-12T03:52:08.391Z,-2.59
2023-03-12T03:57:15.144Z,-2.62
2023-03-12T04:02:19.597Z,-2.63
2023-03-12T04:07:23.984Z,-2.64
2023-03-12T04:12:29.892Z,-2.64
2023-03-12T04:17:34.292Z,-2.64
2023-03-12T04:22:39.425Z,-2.65
2023-03-12T04:27:45.655Z,-2.65
2023-03-12T04:32:49.886Z,-2.57
2023-03-12T04:37:54.865Z,-2.55
2023-03-12T04:43:00.657Z,-2.62
2023-03-12T04:48:07.281Z,-2.60
2023-03-12T04:53:11.333Z,-2.57
2023-03-12T04:58:17.012Z,-2.59
2023-03-12T05:03:21.371Z,-2.54
2023-03-12T05:08:25.904Z,-2.42
2023-03-12T05:13:31.321Z,-2.46
2023-03-12T05:18:35.997Z,-2.48
2023-03-12T05:23:42.571Z,-2.42
2023-03-12T05:28:49.248Z,-2.37
2023-03-12T05:33:55.424Z,-2.25
2023-03-12T05:39:00.233Z,-2.25
2023-03-12T05:44:12.538Z,-2.21
2023-03-12T05:49:18.020Z,-2.11
2023-03-12T05:54:22.313Z,-2.01
2023-03-12T05:59:30.100Z,-1.87
2023-03-12T06:04:34.839Z,-1.72
2023-03-12T06:09:39.304Z,-1.54
2023-03-12T06:14:45.227Z,-1.42
2023-03-12T06:19:52.793Z,-1.45
2023-03-12T06:24:58.129Z,-1.28
2023-03-12T06:30:04.844Z,-1.25
2023-03-12T06:35:09.380Z,-1.24
2023-03-12T06:40:13.824Z,-1.08
2023-03-12T06:45:19.541Z,-0.80
2023-03-12T06:50:24.054Z,-0.52
2023-03-12T06:55:28.746Z,-0.37
2023-03-12T07:00:35.031Z,-0.43
2023-03-12T07:05:39.494Z,-0.35
2023-03-12T07:10:44.372Z,-0.22
2023-03-12T07:15:50.101Z,-0.16
2023-03-12T07:20:55.079Z,0.11
2023-03-12T07:25:59.392Z,0.13
2023-03-12T07:31:06.625Z,0.40
2023-03-12T07:36:11.003Z,0.47
2023-03-12T07:41:18.814Z,0.42
2023-03-12T07:46:24.174Z,0.56
2023-03-12T07:51:28.538Z,0.62
2023-03-12T07:56:34.977Z,0.49
2023-03-12T08:01:40.573Z,0.65
2023-03-12T08:06:44.824Z,0.73
2023-03-12T08:11:49.148Z,0.99
2023-03-12T08:16:54.547Z,1.34
2023-03-12T08:21:59.075Z,1.60
2023-03-12T08:27:03.381Z,1.72
2023-03-12T08:32:10.810Z,1.63
2023-03-12T08:37:15.525Z,1.68
2023-03-12T08:42:19.766Z,1.45
2023-03-12T08:47:25.110Z,1.79
2023-03-12T08:52:29.152Z,1.85
2023-03-12T08:57:33.409Z,1.87
2023-03-12T09:02:38.811Z,1.96
2023-03-12T09:07:43.021Z,1.86
2023-03-12T09:12:47.120Z,1.89
2023-03-12T09:17:54.030Z,2.04
2023-03-12T09:22:58.175Z,2.18
2023-03-12T09:28:02.711Z,2.34
2023-03-12T09:33:08.106Z,2.53
2023-03-12T09:38:15.075Z,2.66
2023-03-12T09:43:24.121Z,2.94
2023-03-12T09:48:34.266Z,2.47
2023-03-12T09:53:42.316Z,2.92
2023-03-12T09:58:48.861Z,3.17
2023-03-12T10:04:25.156Z,3.09
2023-03-12T10:09:39.174Z,3.22
2023-03-12T10:14:55.929Z,3.49
2023-03-12T10:20:22.187Z,3.53
2023-03-12T10:25:29.764Z,3.73
2023-03-12T10:30:34.221Z,3.63
2023-03-12T10:35:40.814Z,4.29
2023-03-12T10:40:44.888Z,4.50
2023-03-12T10:45:58.337Z,4.34
2023-03-12T10:51:06.171Z,3.96
2023-03-12T10:56:12.326Z,4.34
2023-03-12T11:01:20.990Z,4.25
2023-03-12T11:06:28.675Z,3.90
2023-03-12T11:11:34.359Z,4.08
2023-03-12T11:16:38.515Z,4.06
2023-03-12T11:21:56.840Z,4.34
2023-03-12T11:27:07.038Z,4.13
2023-03-12T11:32:16.890Z,4.26
2023-03-12T11:37:31.778Z,4.39
2023-03-12T11:42:46.740Z,4.54
2023-03-12T11:48:01.681Z,4.89
2023-03-12T11:53:22.788Z,4.54
2023-03-12T11:58:36.510Z,5.17
2023-03-12T12:04:09.978Z,5.02
2023-03-12T12:09:25.088Z,4.94
2023-03-12T12:14:42.614Z,4.98
2023-03-12T12:19:57.596Z,5.70
2023-03-12T12:25:55.225Z,5.68
2023-03-12T12:31:09.774Z,5.83
2023-03-12T12:36:15.058Z,5.91
2023-03-12T12:41:22.829Z,5.85
2023-03-12T12:46:32.109Z,5.99
2023-03-12T12:51:37.700Z,5.86
2023-03-12T12:56:47.107Z,6.54
2023-03-12T13:01:52.565Z,6.67
2023-03-12T13:06:59.201Z,6.66
2023-03-12T13:12:17.148Z,6.18
2023-03-12T13:17:27.712Z,6.38
2023-03-12T13:22:42.150Z,6.54
2023-03-12T13:27:47.999Z,6.67
2023-03-12T13:33:12.855Z,6.46
2023-03-12T13:38:34.908Z,6.72
2023-03-12T13:43:52.700Z,6.56
2023-03-12T13:49:01.441Z,6.62
2023-03-12T13:54:06.060Z,6.87
2023-03-12T13:59:18.775Z,6.58
2023-03-12T14:04:26.390Z,6.46
2023-03-12T14:09:35.742Z,6.31
2023-03-12T14:14:54.055Z,6.41
2023-03-12T14:20:01.719Z,6.12
2023-03-12T14:25:13.391Z,6.22
2023-03-12T14:30:23.672Z,6.25
2023-03-12T14:35:30.649Z,6.56
2023-03-12T14:40:39.416Z,6.10
2023-03-12T14:45:45.434Z,6.17
2023-03-12T14:50:50.106Z,6.01
2023-03-12T14:56:07.236Z,5.74
2023-03-12T15:01:15.563Z,5.72
2023-03-12T15:06:22.900Z,5.86
2023-03-12T15:11:29.657Z,5.94
2023-03-12T15:16:35.327Z,5.63
2023-03-12T15:21:39.839Z,5.55
2023-03-12T15:26:44.164Z,5.49
2023-03-12T15:31:50.732Z,5.51
2023-03-12T15:36:55.314Z,5.53
2023-03-12T15:42:03.343Z,5.62
2023-03-12T15:47:12.670Z,5.43
2023-03-12T15:52:33.008Z,5.26
2023-03-12T15:57:47.327Z,4.98
2023-03-12T16:02:55.902Z,4.93
2023-03-12T16:08:02.517Z,4.84
2023-03-12T16:13:07.049Z,4.80
2023-03-12T16:18:15.258Z,4.68
2023-03-12T16:23:19.681Z,4.63
2023-03-12T16:28:24.292Z,4.47
2023-03-12T16:33:29.755Z,4.36
2023-03-12T16:38:33.839Z,4.27
2023-03-12T16:43:38.413Z,4.13
2023-03-12T16:48:43.926Z,4.11
2023-03-12T16:53:55.798Z,3.96
2023-03-12T16:59:16.049Z,3.87
2023-03-12T17:04:21.702Z,3.79
2023-03-12T17:09:25.905Z,3.64
2023-03-12T17:14:31.042Z,3.62
2023-03-12T17:19:36.346Z,3.52
2023-03-12T17:24:40.459Z,3.44
2023-03-12T17:29:44.762Z,3.40
2023-03-12T17:34:55.718Z,3.38
2023-03-12T17:40:01.809Z,3.37
2023-03-12T17:45:08.342Z,3.32
2023-03-12T17:50:14.576Z,3.32
2023-03-12T17:55:18.917Z,3.27
2023-03-12T18:00:23.211Z,3.30
2023-03-12T18:05:28.685Z,3.29
2023-03-12T18:10:33.243Z,3.26
2023-03-12T18:15:37.494Z,3.21
2023-03-12T18:20:44.755Z,3.18
2023-03-12T18:25:48.964Z,3.19
2023-03-12T18:30:54.703Z,3.21
2023-03-12T18:36:00.308Z,3.18
2023-03-12T18:41:05.560Z,3.19
2023-03-12T18:46:11.346Z,3.21
2023-03-12T18:51:17.115Z,3.24
2023-03-12T18:56:21.334Z,3.22
2023-03-12T19:01:26.162Z,3.22
2023-03-12T19:06:47.809Z,3.21
2023-03-12T19:11:54.297Z,3.19
2023-03-12T19:16:58.818Z,3.22
2023-03-12T19:22:04.711Z,3.20
2023-03-12T19:27:08.854Z,3.24
2023-03-12T19:32:13.097Z,3.19
2023-03-12T19:37:18.624Z,3.27
2023-03-12T19:42:22.486Z,3.29
2023-03-12T19:47:26.834Z,3.33
2023-03-12T19:52:32.465Z,3.35
2023-03-12T19:57:36.660Z,3.29
2023-03-12T20:02:41.361Z,3.27
2023-03-12T20:07:46.825Z,3.27
2023-03-12T20:12:50.920Z,3.23
2023-03-12T20:17:56.883Z,3.22
2023-03-12T20:23:02.647Z,3.13
2023-03-12T20:28:06.993Z,3.16
2023-03-12T20:33:10.994Z,3.15
2023-03-12T20:38:16.454Z,3.11
2023-03-12T20:43:20.558Z,3.06
2023-03-12T20:48:24.659Z,2.99
2023-03-12T20:53:30.181Z,3.05
2023-03-12T20:58:34.314Z,3.06
2023-03-12T21:03:39.688Z,3.10
2023-03-12T21:08:45.357Z,3.13
2023-03-12T21:13:49.445Z,3.11
2023-03-12T21:18:56.657Z,3.15
2023-03-12T21:24:02.014Z,3.16
2023-03-12T21:29:06.266Z,3.23
2023-03-12T21:34:10.421Z,3.22
2023-03-12T21:39:17.061Z,3.19
2023-03-12T21:44:21.204Z,3.21
2023-03-12T21:49:25.534Z,3.25
2023-03-12T21:54:33.851Z,3.26
2023-03-12T21:59:37.970Z,3.29
2023-03-12T22:04:42.253Z,3.29
2023-03-12T22:09:47.461Z,3.32
2023-03-12T22:14:51.676Z,3.33
2023-03-12T22:19:55.771Z,3.32
2023-03-12T22:25:01.668Z,3.36
2023-03-12T22:30:06.946Z,3.34
2023-03-12T22:35:11.242Z,3.39
2023-03-12T22:40:17.213Z,3.44
2023-03-12T22:45:21.336Z,3.45
2023-03-12T22:50:25.571Z,3.48
2023-03-12T22:55:31.354Z,3.50
2023-03-12T23:00:35.781Z,3.52
2023-03-12T23:05:39.873Z,3.55
2023-03-12T23:10:51.112Z,3.47
2023-03-12T23:15:55.583Z,3.39
2023-03-12T23:21:00.541Z,3.34
2023-03-12T23:26:06.839Z,3.39
2023-03-12T23:31:11.708Z,3.36
2023-03-12T23:36:17.398Z,3.32
2023-03-12T23:41:24.695Z,3.28
2023-03-12T23:46:28.966Z,3.10
2023-03-12T23:51:34.396Z,3.11
2023-03-12T23:56:41.428Z,3.01
